sensor_id;sensor_type;location;lat;lon;timestamp;pressure;altitude;pressure_sealevel;temperature;humidity
56825;BME280;42705;50.326;18.772;2023-02-10T00:05:20;100164.80;;;-2.87;54.76
56825;BME280;42705;50.326;18.772;2023-02-10T00:10:41;100159.66;;;-2.86;54.87
56825;BME280;42705;50.326;18.772;2023-02-10T00:16:04;100149.40;;;-2.83;55.06
56825;BME280;42705;50.326;18.772;2023-02-10T00:21:26;100143.06;;;-2.82;55.10
56825;BME280;42705;50.326;18.772;2023-02-10T00:26:48;100153.50;;;-2.83;55.12
56825;BME280;42705;50.326;18.772;2023-02-10T00:32:09;100145.80;;;-2.83;55.24
56825;BME280;42705;50.326;18.772;2023-02-10T00:37:34;100149.57;;;-2.85;55.23
56825;BME280;42705;50.326;18.772;2023-02-10T00:42:55;100146.00;;;-2.87;55.37
56825;BME280;42705;50.326;18.772;2023-02-10T00:48:16;100151.32;;;-2.89;55.48
56825;BME280;42705;50.326;18.772;2023-02-10T00:53:38;100154.42;;;-2.92;55.58
56825;BME280;42705;50.326;18.772;2023-02-10T00:58:59;100155.29;;;-2.94;55.57
56825;BME280;42705;50.326;18.772;2023-02-10T01:04:20;100160.77;;;-2.95;55.75
56825;BME280;42705;50.326;18.772;2023-02-10T01:09:42;100156.17;;;-2.95;55.94
56825;BME280;42705;50.326;18.772;2023-02-10T01:15:04;100151.20;;;-2.94;56.01
56825;BME280;42705;50.326;18.772;2023-02-10T01:20:25;100146.04;;;-2.92;56.05
56825;BME280;42705;50.326;18.772;2023-02-10T01:25:47;100150.10;;;-2.87;56.10
56825;BME280;42705;50.326;18.772;2023-02-10T01:31:13;100148.03;;;-2.85;56.14
56825;BME280;42705;50.326;18.772;2023-02-10T01:36:34;100144.61;;;-2.84;56.13
56825;BME280;42705;50.326;18.772;2023-02-10T01:41:55;100144.61;;;-2.84;56.33
56825;BME280;42705;50.326;18.772;2023-02-10T01:47:17;100142.41;;;-2.86;56.48
56825;BME280;42705;50.326;18.772;2023-02-10T01:52:39;100141.92;;;-2.90;56.64
56825;BME280;42705;50.326;18.772;2023-02-10T01:58:02;100153.08;;;-2.94;56.70
56825;BME280;42705;50.326;18.772;2023-02-10T02:03:26;100153.98;;;-2.99;56.86
56825;BME280;42705;50.326;18.772;2023-02-10T02:08:47;100131.27;;;-3.03;56.89
56825;BME280;42705;50.326;18.772;2023-02-10T02:14:26;100109.74;;;-3.06;57.11
56825;BME280;42705;50.326;18.772;2023-02-10T02:20:21;100107.73;;;-3.09;57.20
56825;BME280;42705;50.326;18.772;2023-02-10T02:26:36;100102.63;;;-3.13;57.36
56825;BME280;42705;50.326;18.772;2023-02-10T02:32:09;100103.52;;;-3.18;57.44
56825;BME280;42705;50.326;18.772;2023-02-10T02:37:37;100105.44;;;-3.22;57.70
56825;BME280;42705;50.326;18.772;2023-02-10T02:43:01;100107.52;;;-3.27;57.70
56825;BME280;42705;50.326;18.772;2023-02-10T02:59:32;100105.08;;;-3.42;58.06
56825;BME280;42705;50.326;18.772;2023-02-10T03:04:56;100097.39;;;-3.44;58.03
56825;BME280;42705;50.326;18.772;2023-02-10T03:10:19;100090.58;;;-3.47;58.07
56825;BME280;42705;50.326;18.772;2023-02-10T03:15:42;100090.27;;;-3.50;58.16
56825;BME280;42705;50.326;18.772;2023-02-10T03:21:04;100101.40;;;-3.53;58.10
56825;BME280;42705;50.326;18.772;2023-02-10T03:26:27;100102.61;;;-3.55;58.15
56825;BME280;42705;50.326;18.772;2023-02-10T03:31:49;100103.66;;;-3.58;58.12
56825;BME280;42705;50.326;18.772;2023-02-10T03:37:11;100108.45;;;-3.60;58.23
56825;BME280;42705;50.326;18.772;2023-02-10T03:42:33;100112.73;;;-3.65;58.19
56825;BME280;42705;50.326;18.772;2023-02-10T03:47:54;100108.83;;;-3.67;58.23
56825;BME280;42705;50.326;18.772;2023-02-10T03:53:15;100111.92;;;-3.70;58.30
56825;BME280;42705;50.326;18.772;2023-02-10T03:58:36;100110.05;;;-3.72;58.30
56825;BME280;42705;50.326;18.772;2023-02-10T04:03:57;100106.66;;;-3.76;58.29
56825;BME280;42705;50.326;18.772;2023-02-10T04:09:18;100117.27;;;-3.80;58.35
56825;BME280;42705;50.326;18.772;2023-02-10T04:14:39;100116.61;;;-3.84;58.57
56825;BME280;42705;50.326;18.772;2023-02-10T04:20:00;100115.26;;;-3.88;58.49
56825;BME280;42705;50.326;18.772;2023-02-10T04:25:22;100113.94;;;-3.92;58.51
56825;BME280;42705;50.326;18.772;2023-02-10T04:30:44;100110.33;;;-3.90;58.69
56825;BME280;42705;50.326;18.772;2023-02-10T04:36:06;100123.80;;;-3.87;58.70
56825;BME280;42705;50.326;18.772;2023-02-10T04:41:27;100133.38;;;-3.89;58.68
56825;BME280;42705;50.326;18.772;2023-02-10T04:46:48;100131.69;;;-3.94;58.67
56825;BME280;42705;50.326;18.772;2023-02-10T04:52:11;100135.45;;;-3.98;58.77
56825;BME280;42705;50.326;18.772;2023-02-10T04:57:32;100141.80;;;-4.03;58.64
56825;BME280;42705;50.326;18.772;2023-02-10T05:02:53;100137.55;;;-4.07;58.75
56825;BME280;42705;50.326;18.772;2023-02-10T05:08:15;100131.77;;;-4.12;58.75
56825;BME280;42705;50.326;18.772;2023-02-10T05:13:37;100133.15;;;-4.17;58.88
56825;BME280;42705;50.326;18.772;2023-02-10T05:18:58;100143.75;;;-4.22;58.89
56825;BME280;42705;50.326;18.772;2023-02-10T05:24:19;100148.71;;;-4.26;58.92
56825;BME280;42705;50.326;18.772;2023-02-10T05:29:40;100154.70;;;-4.30;58.80
56825;BME280;42705;50.326;18.772;2023-02-10T05:35:02;100168.19;;;-4.34;58.98
56825;BME280;42705;50.326;18.772;2023-02-10T05:40:23;100180.11;;;-4.28;59.29
56825;BME280;42705;50.326;18.772;2023-02-10T05:45:47;100187.27;;;-4.23;59.16
56825;BME280;42705;50.326;18.772;2023-02-10T05:51:09;100186.93;;;-4.22;59.06
56825;BME280;42705;50.326;18.772;2023-02-10T05:56:30;100185.56;;;-4.26;59.03
56825;BME280;42705;50.326;18.772;2023-02-10T06:01:51;100189.85;;;-4.29;59.06
56825;BME280;42705;50.326;18.772;2023-02-10T06:07:12;100193.45;;;-4.34;59.01
56825;BME280;42705;50.326;18.772;2023-02-10T06:12:33;100190.02;;;-4.38;59.03
56825;BME280;42705;50.326;18.772;2023-02-10T06:17:54;100192.59;;;-4.42;59.15
56825;BME280;42705;50.326;18.772;2023-02-10T06:23:15;100195.83;;;-4.46;59.27
56825;BME280;42705;50.326;18.772;2023-02-10T06:28:36;100198.91;;;-4.46;59.20
56825;BME280;42705;50.326;18.772;2023-02-10T06:33:58;100203.86;;;-4.47;59.33
56825;BME280;42705;50.326;18.772;2023-02-10T06:39:19;100203.01;;;-4.45;59.27
56825;BME280;42705;50.326;18.772;2023-02-10T06:44:41;100209.65;;;-4.35;59.50
56825;BME280;42705;50.326;18.772;2023-02-10T06:50:03;100213.90;;;-4.26;59.58
56825;BME280;42705;50.326;18.772;2023-02-10T06:55:24;100218.65;;;-4.20;59.47
56825;BME280;42705;50.326;18.772;2023-02-10T07:00:45;100218.64;;;-4.17;59.58
56825;BME280;42705;50.326;18.772;2023-02-10T07:06:06;100223.59;;;-4.14;59.46
56825;BME280;42705;50.326;18.772;2023-02-10T07:11:27;100224.44;;;-4.10;59.63
56825;BME280;42705;50.326;18.772;2023-02-10T07:16:49;100228.52;;;-4.06;59.52
56825;BME280;42705;50.326;18.772;2023-02-10T07:22:10;100237.20;;;-4.00;59.54
56825;BME280;42705;50.326;18.772;2023-02-10T07:27:31;100245.73;;;-3.93;59.65
56825;BME280;42705;50.326;18.772;2023-02-10T07:32:52;100237.34;;;-3.86;59.40
56825;BME280;42705;50.326;18.772;2023-02-10T07:38:14;100230.48;;;-3.78;59.40
56825;BME280;42705;50.326;18.772;2023-02-10T07:43:35;100233.86;;;-3.71;59.42
56825;BME280;42705;50.326;18.772;2023-02-10T07:48:59;100234.86;;;-3.63;59.35
56825;BME280;42705;50.326;18.772;2023-02-10T07:54:20;100238.42;;;-3.54;59.19
56825;BME280;42705;50.326;18.772;2023-02-10T07:59:42;100242.13;;;-3.44;59.16
56825;BME280;42705;50.326;18.772;2023-02-10T08:05:03;100239.16;;;-3.33;58.96
56825;BME280;42705;50.326;18.772;2023-02-10T08:10:25;100246.61;;;-3.21;58.84
56825;BME280;42705;50.326;18.772;2023-02-10T08:15:46;100248.58;;;-3.07;58.58
56825;BME280;42705;50.326;18.772;2023-02-10T08:21:08;100259.45;;;-2.97;58.55
56825;BME280;42705;50.326;18.772;2023-02-10T08:26:29;100257.98;;;-2.82;58.51
56825;BME280;42705;50.326;18.772;2023-02-10T08:31:51;100253.09;;;-2.68;58.21
56825;BME280;42705;50.326;18.772;2023-02-10T08:37:13;100258.16;;;-2.59;57.86
56825;BME280;42705;50.326;18.772;2023-02-10T08:42:35;100261.69;;;-2.51;57.71
56825;BME280;42705;50.326;18.772;2023-02-10T08:47:56;100258.17;;;-2.42;57.51
56825;BME280;42705;50.326;18.772;2023-02-10T08:53:17;100247.26;;;-2.26;57.56
56825;BME280;42705;50.326;18.772;2023-02-10T08:58:38;100246.97;;;-2.14;57.25
56825;BME280;42705;50.326;18.772;2023-02-10T09:04:01;100250.80;;;-2.03;56.84
56825;BME280;42705;50.326;18.772;2023-02-10T09:09:23;100254.76;;;-1.74;56.46
56825;BME280;42705;50.326;18.772;2023-02-10T09:14:45;100262.69;;;-1.49;55.93
56825;BME280;42705;50.326;18.772;2023-02-10T09:20:07;100267.18;;;-1.38;55.65
56825;BME280;42705;50.326;18.772;2023-02-10T09:25:29;100264.81;;;-1.28;55.70
56825;BME280;42705;50.326;18.772;2023-02-10T09:30:50;100266.02;;;-1.15;55.41
56825;BME280;42705;50.326;18.772;2023-02-10T09:36:18;100268.36;;;-0.99;55.12
56825;BME280;42705;50.326;18.772;2023-02-10T09:41:50;100261.51;;;-0.87;54.60
56825;BME280;42705;50.326;18.772;2023-02-10T09:53:12;100268.36;;;-0.53;53.86
56825;BME280;42705;50.326;18.772;2023-02-10T09:58:43;100276.08;;;-0.52;53.70
56825;BME280;42705;50.326;18.772;2023-02-10T10:04:16;100282.77;;;-0.65;53.69
56825;BME280;42705;50.326;18.772;2023-02-10T10:09:45;100275.12;;;-0.69;53.84
56825;BME280;42705;50.326;18.772;2023-02-10T10:15:17;100260.89;;;-0.59;53.69
56825;BME280;42705;50.326;18.772;2023-02-10T10:20:50;100256.09;;;-0.28;53.72
56825;BME280;42705;50.326;18.772;2023-02-10T10:32:16;100254.31;;;0.30;53.12
56825;BME280;42705;50.326;18.772;2023-02-10T10:37:38;100252.60;;;0.31;53.06
56825;BME280;42705;50.326;18.772;2023-02-10T10:43:00;100257.67;;;0.35;52.77
56825;BME280;42705;50.326;18.772;2023-02-10T10:48:25;100246.14;;;0.35;52.68
56825;BME280;42705;50.326;18.772;2023-02-10T10:53:55;100250.04;;;0.39;52.26
56825;BME280;42705;50.326;18.772;2023-02-10T10:59:25;100245.96;;;0.36;52.46
56825;BME280;42705;50.326;18.772;2023-02-10T11:05:13;100238.55;;;0.28;52.38
56825;BME280;42705;50.326;18.772;2023-02-10T11:10:55;100233.40;;;0.28;52.22
56825;BME280;42705;50.326;18.772;2023-02-10T11:16:18;100229.88;;;0.32;52.27
56825;BME280;42705;50.326;18.772;2023-02-10T11:21:40;100228.45;;;0.34;52.34
56825;BME280;42705;50.326;18.772;2023-02-10T11:27:12;100226.80;;;0.32;51.97
56825;BME280;42705;50.326;18.772;2023-02-10T11:32:36;100226.68;;;0.29;51.90
56825;BME280;42705;50.326;18.772;2023-02-10T11:38:05;100217.75;;;0.28;52.00
56825;BME280;42705;50.326;18.772;2023-02-10T11:43:36;100217.61;;;0.35;52.21
56825;BME280;42705;50.326;18.772;2023-02-10T11:49:01;100213.59;;;0.39;52.03
56825;BME280;42705;50.326;18.772;2023-02-10T11:54:23;100216.64;;;0.41;52.24
56825;BME280;42705;50.326;18.772;2023-02-10T12:00:06;100208.80;;;0.38;52.15
56825;BME280;42705;50.326;18.772;2023-02-10T12:34:11;100218.56;;;0.55;52.15
56825;BME280;42705;50.326;18.772;2023-02-10T13:08:00;100224.38;;;2.25;51.33
56825;BME280;42705;50.326;18.772;2023-02-10T13:13:25;100213.13;;;3.32;49.64
56825;BME280;42705;50.326;18.772;2023-02-10T13:35:49;100221.82;;;7.02;45.93
56825;BME280;42705;50.326;18.772;2023-02-10T13:41:29;100232.11;;;6.75;46.44
56825;BME280;42705;50.326;18.772;2023-02-10T13:52:33;100243.30;;;4.41;47.58
56825;BME280;42705;50.326;18.772;2023-02-10T13:57:58;100237.53;;;3.53;48.42
56825;BME280;42705;50.326;18.772;2023-02-10T14:03:24;100237.59;;;2.92;49.10
56825;BME280;42705;50.326;18.772;2023-02-10T14:08:46;100238.30;;;2.51;49.76
56825;BME280;42705;50.326;18.772;2023-02-10T14:19:44;100249.31;;;1.88;51.19
56825;BME280;42705;50.326;18.772;2023-02-10T14:30:40;100257.35;;;1.65;51.82
56825;BME280;42705;50.326;18.772;2023-02-10T14:36:13;100249.27;;;1.57;52.10
56825;BME280;42705;50.326;18.772;2023-02-10T14:41:36;100251.97;;;1.52;52.41
56825;BME280;42705;50.326;18.772;2023-02-10T14:46:57;100249.23;;;1.51;52.28
56825;BME280;42705;50.326;18.772;2023-02-10T14:52:30;100253.52;;;1.45;52.36
56825;BME280;42705;50.326;18.772;2023-02-10T14:57:55;100255.39;;;1.39;52.80
56825;BME280;42705;50.326;18.772;2023-02-10T15:03:18;100254.73;;;1.38;52.99
56825;BME280;42705;50.326;18.772;2023-02-10T15:09:07;100248.26;;;1.35;52.93
56825;BME280;42705;50.326;18.772;2023-02-10T15:14:35;100250.56;;;1.32;53.05
56825;BME280;42705;50.326;18.772;2023-02-10T15:20:14;100252.35;;;1.29;52.96
56825;BME280;42705;50.326;18.772;2023-02-10T15:25:40;100252.32;;;1.23;53.19
56825;BME280;42705;50.326;18.772;2023-02-10T15:36:35;100253.81;;;1.11;53.48
56825;BME280;42705;50.326;18.772;2023-02-10T15:47:41;100267.06;;;0.96;53.88
56825;BME280;42705;50.326;18.772;2023-02-10T15:53:05;100271.98;;;0.91;53.86
56825;BME280;42705;50.326;18.772;2023-02-10T15:58:30;100273.85;;;0.84;53.96
56825;BME280;42705;50.326;18.772;2023-02-10T16:03:53;100272.77;;;0.78;54.36
56825;BME280;42705;50.326;18.772;2023-02-10T16:09:16;100274.44;;;0.72;54.45
56825;BME280;42705;50.326;18.772;2023-02-10T16:14:38;100282.65;;;0.67;54.65
56825;BME280;42705;50.326;18.772;2023-02-10T16:19:59;100284.80;;;0.63;54.97
56825;BME280;42705;50.326;18.772;2023-02-10T16:25:23;100284.36;;;0.58;55.16
56825;BME280;42705;50.326;18.772;2023-02-10T16:30:45;100275.50;;;0.54;55.32
56825;BME280;42705;50.326;18.772;2023-02-10T16:36:08;100274.17;;;0.51;55.90
56825;BME280;42705;50.326;18.772;2023-02-10T16:41:31;100274.60;;;0.49;55.85
56825;BME280;42705;50.326;18.772;2023-02-10T16:46:52;100283.05;;;0.47;56.24
56825;BME280;42705;50.326;18.772;2023-02-10T16:52:15;100282.06;;;0.45;56.35
56825;BME280;42705;50.326;18.772;2023-02-10T16:57:41;100287.39;;;0.45;56.31
56825;BME280;42705;50.326;18.772;2023-02-10T17:03:02;100295.13;;;0.45;56.55
56825;BME280;42705;50.326;18.772;2023-02-10T17:08:24;100297.20;;;0.44;56.71
56825;BME280;42705;50.326;18.772;2023-02-10T17:13:46;100302.36;;;0.43;56.61
56825;BME280;42705;50.326;18.772;2023-02-10T17:19:07;100309.60;;;0.43;56.91
56825;BME280;42705;50.326;18.772;2023-02-10T17:24:29;100312.39;;;0.41;56.94
56825;BME280;42705;50.326;18.772;2023-02-10T17:29:51;100310.73;;;0.38;57.08
56825;BME280;42705;50.326;18.772;2023-02-10T17:35:15;100304.38;;;0.37;57.16
56825;BME280;42705;50.326;18.772;2023-02-10T17:40:37;100301.80;;;0.37;57.67
56825;BME280;42705;50.326;18.772;2023-02-10T17:45:59;100301.96;;;0.38;57.57
56825;BME280;42705;50.326;18.772;2023-02-10T17:51:22;100300.41;;;0.38;57.48
56825;BME280;42705;50.326;18.772;2023-02-10T17:56:43;100296.66;;;0.37;57.84
56825;BME280;42705;50.326;18.772;2023-02-10T18:02:05;100301.91;;;0.32;57.98
56825;BME280;42705;50.326;18.772;2023-02-10T18:07:26;100295.29;;;0.27;57.98
56825;BME280;42705;50.326;18.772;2023-02-10T18:12:48;100296.41;;;0.23;57.91
56825;BME280;42705;50.326;18.772;2023-02-10T18:18:10;100291.38;;;0.16;58.10
56825;BME280;42705;50.326;18.772;2023-02-10T18:23:32;100295.70;;;0.13;58.35
56825;BME280;42705;50.326;18.772;2023-02-10T18:28:53;100292.21;;;0.17;58.46
56825;BME280;42705;50.326;18.772;2023-02-10T18:34:15;100290.25;;;0.21;58.54
56825;BME280;42705;50.326;18.772;2023-02-10T18:39:37;100286.85;;;0.19;58.57
56825;BME280;42705;50.326;18.772;2023-02-10T18:44:58;100279.91;;;0.13;58.79
56825;BME280;42705;50.326;18.772;2023-02-10T18:50:20;100276.42;;;0.07;58.77
56825;BME280;42705;50.326;18.772;2023-02-10T18:55:42;100279.65;;;-0.00;58.97
56825;BME280;42705;50.326;18.772;2023-02-10T19:01:06;100287.17;;;-0.08;59.03
56825;BME280;42705;50.326;18.772;2023-02-10T19:06:29;100286.42;;;-0.14;59.32
56825;BME280;42705;50.326;18.772;2023-02-10T19:11:50;100288.45;;;-0.22;59.53
56825;BME280;42705;50.326;18.772;2023-02-10T19:17:11;100283.92;;;-0.29;59.81
56825;BME280;42705;50.326;18.772;2023-02-10T19:22:33;100298.52;;;-0.28;59.93
56825;BME280;42705;50.326;18.772;2023-02-10T19:27:54;100297.51;;;-0.30;60.06
56825;BME280;42705;50.326;18.772;2023-02-10T19:33:15;100292.61;;;-0.35;60.17
56825;BME280;42705;50.326;18.772;2023-02-10T19:38:37;100299.39;;;-0.41;60.35
56825;BME280;42705;50.326;18.772;2023-02-10T19:43:59;100298.66;;;-0.48;60.33
56825;BME280;42705;50.326;18.772;2023-02-10T19:49:20;100306.15;;;-0.55;60.77
56825;BME280;42705;50.326;18.772;2023-02-10T19:54:44;100306.70;;;-0.57;60.97
56825;BME280;42705;50.326;18.772;2023-02-10T20:00:05;100306.81;;;-0.53;61.08
56825;BME280;42705;50.326;18.772;2023-02-10T20:05:32;100299.61;;;-0.53;61.33
56825;BME280;42705;50.326;18.772;2023-02-10T20:10:53;100286.66;;;-0.60;61.23
56825;BME280;42705;50.326;18.772;2023-02-10T20:16:15;100289.48;;;-0.66;61.46
56825;BME280;42705;50.326;18.772;2023-02-10T20:21:37;100282.55;;;-0.72;61.45
56825;BME280;42705;50.326;18.772;2023-02-10T20:26:59;100283.83;;;-0.77;61.79
56825;BME280;42705;50.326;18.772;2023-02-10T20:32:20;100282.10;;;-0.75;62.00
56825;BME280;42705;50.326;18.772;2023-02-10T20:37:44;100283.06;;;-0.71;62.00
56825;BME280;42705;50.326;18.772;2023-02-10T20:43:07;100276.42;;;-0.75;61.77
56825;BME280;42705;50.326;18.772;2023-02-10T20:48:28;100279.09;;;-0.82;62.11
56825;BME280;42705;50.326;18.772;2023-02-10T20:53:49;100283.30;;;-0.88;62.03
56825;BME280;42705;50.326;18.772;2023-02-10T20:59:13;100280.80;;;-0.93;62.02
56825;BME280;42705;50.326;18.772;2023-02-10T21:04:34;100276.85;;;-0.92;62.31
56825;BME280;42705;50.326;18.772;2023-02-10T21:09:56;100278.38;;;-0.91;62.61
56825;BME280;42705;50.326;18.772;2023-02-10T21:15:18;100272.08;;;-0.94;62.33
56825;BME280;42705;50.326;18.772;2023-02-10T21:20:41;100274.61;;;-1.04;62.36
56825;BME280;42705;50.326;18.772;2023-02-10T21:26:04;100269.62;;;-1.15;62.28
56825;BME280;42705;50.326;18.772;2023-02-10T21:31:26;100270.13;;;-1.27;62.52
56825;BME280;42705;50.326;18.772;2023-02-10T21:36:47;100263.35;;;-1.34;62.70
56825;BME280;42705;50.326;18.772;2023-02-10T21:42:10;100261.71;;;-1.40;62.73
56825;BME280;42705;50.326;18.772;2023-02-10T21:47:31;100261.15;;;-1.50;62.60
56825;BME280;42705;50.326;18.772;2023-02-10T21:52:52;100249.83;;;-1.62;62.72
56825;BME280;42705;50.326;18.772;2023-02-10T21:58:13;100242.77;;;-1.73;62.91
56825;BME280;42705;50.326;18.772;2023-02-10T22:03:35;100224.67;;;-1.80;63.11
56825;BME280;42705;50.326;18.772;2023-02-10T22:08:57;100217.37;;;-1.84;63.43
56825;BME280;42705;50.326;18.772;2023-02-10T22:14:18;100211.84;;;-1.96;63.47
56825;BME280;42705;50.326;18.772;2023-02-10T22:19:39;100195.23;;;-2.11;63.71
56825;BME280;42705;50.326;18.772;2023-02-10T22:25:02;100194.31;;;-2.21;63.78
56825;BME280;42705;50.326;18.772;2023-02-10T22:30:24;100185.43;;;-2.23;64.01
56825;BME280;42705;50.326;18.772;2023-02-10T22:35:45;100182.19;;;-2.24;64.18
56825;BME280;42705;50.326;18.772;2023-02-10T22:41:08;100186.15;;;-2.27;64.32
56825;BME280;42705;50.326;18.772;2023-02-10T22:46:30;100186.55;;;-2.33;64.29
56825;BME280;42705;50.326;18.772;2023-02-10T22:51:52;100186.23;;;-2.34;64.39
56825;BME280;42705;50.326;18.772;2023-02-10T22:57:13;100182.44;;;-2.33;64.45
56825;BME280;42705;50.326;18.772;2023-02-10T23:02:34;100186.42;;;-2.37;64.69
56825;BME280;42705;50.326;18.772;2023-02-10T23:07:55;100185.64;;;-2.43;64.83
56825;BME280;42705;50.326;18.772;2023-02-10T23:13:16;100173.02;;;-2.49;64.83
56825;BME280;42705;50.326;18.772;2023-02-10T23:18:38;100162.27;;;-2.52;65.00
56825;BME280;42705;50.326;18.772;2023-02-10T23:23:59;100156.16;;;-2.57;65.16
56825;BME280;42705;50.326;18.772;2023-02-10T23:29:21;100150.27;;;-2.66;65.41
56825;BME280;42705;50.326;18.772;2023-02-10T23:34:42;100143.66;;;-2.73;65.48
56825;BME280;42705;50.326;18.772;2023-02-10T23:40:04;100135.97;;;-2.73;65.78
56825;BME280;42705;50.326;18.772;2023-02-10T23:45:28;100131.70;;;-2.75;65.96
56825;BME280;42705;50.326;18.772;2023-02-10T23:50:49;100126.61;;;-2.79;66.27
56825;BME280;42705;50.326;18.772;2023-02-10T23:56:11;100120.98;;;-2.81;66.19
